createdAt,value
2023-02-28T00:00:20.932Z,100837.63
2023-02-28T00:01:08.266Z,100835.19
2023-02-28T00:01:55.190Z,100840.28
2023-02-28T00:02:43.252Z,100838.38
2023-02-28T00:03:30.241Z,100840.69
2023-02-28T00:04:17.212Z,100839.31
2023-02-28T00:05:04.485Z,100835.03
2023-02-28T00:05:51.391Z,100840.78
2023-02-28T00:06:38.835Z,100837.66
2023-02-28T00:07:25.712Z,100839.97
2023-02-28T00:08:12.885Z,100838.22
2023-02-28T00:08:59.781Z,100850.06
2023-02-28T00:09:46.674Z,100843.37
2023-02-28T00:10:33.675Z,100848.06
2023-02-28T00:11:20.612Z,100848.75
2023-02-28T00:12:12.055Z,100847.41
2023-02-28T00:13:07.367Z,100849.66
2023-02-28T00:13:54.245Z,100853.13
2023-02-28T00:14:41.177Z,100853.03
2023-02-28T00:15:28.430Z,100851.13
2023-02-28T00:16:18.557Z,100854.66
2023-02-28T00:17:05.456Z,100852.34
2023-02-28T00:17:52.727Z,100850.47
2023-02-28T00:18:39.675Z,100853.03
2023-02-28T00:19:26.556Z,100851.88
2023-02-28T00:20:14.227Z,100860.50
2023-02-28T00:21:01.166Z,100860.31
2023-02-28T00:21:48.167Z,100856.22
2023-02-28T00:22:35.728Z,100863.66
2023-02-28T00:23:22.662Z,100863.53
2023-02-28T00:24:09.584Z,100856.97
2023-02-28T00:24:56.475Z,100856.69
2023-02-28T00:25:43.378Z,100856.22
2023-02-28T00:26:30.247Z,100868.63
2023-02-28T00:27:17.217Z,100860.81
2023-02-28T00:28:04.204Z,100866.03
2023-02-28T00:28:54.040Z,100862.84
2023-02-28T00:29:41.224Z,100866.28
2023-02-28T00:30:28.117Z,100862.72
2023-02-28T00:31:15.202Z,100868.03
2023-02-28T00:32:02.357Z,100869.41
2023-02-28T00:32:50.180Z,100863.63
2023-02-28T00:33:37.119Z,100877.37
2023-02-28T00:34:24.053Z,100884.13
2023-02-28T00:35:11.965Z,100877.59
2023-02-28T00:36:10.204Z,100874.94
2023-02-28T00:36:57.175Z,100869.59
2023-02-28T00:37:44.189Z,100862.75
2023-02-28T00:38:31.145Z,100864.66
2023-02-28T00:39:18.180Z,100866.28
2023-02-28T00:40:07.090Z,100870.91
2023-02-28T00:40:53.982Z,100878.34
2023-02-28T00:41:40.953Z,100871.41
2023-02-28T00:42:28.371Z,100871.97
2023-02-28T00:43:15.264Z,100873.22
2023-02-28T00:44:02.154Z,100877.97
2023-02-28T00:44:49.065Z,100874.63
2023-02-28T00:45:36.114Z,100883.19
2023-02-28T00:46:23.004Z,100879.38
2023-02-28T00:47:10.164Z,100875.69
2023-02-28T00:47:57.091Z,100872.47
2023-02-28T00:48:44.545Z,100880.44
2023-02-28T00:49:31.452Z,100873.22
2023-02-28T00:50:20.348Z,100875.88
2023-02-28T00:51:07.365Z,100880.72
2023-02-28T00:51:55.668Z,100877.19
2023-02-28T00:52:42.646Z,100884.31
2023-02-28T00:53:29.789Z,100883.56
2023-02-28T00:54:17.418Z,100880.06
2023-02-28T00:55:04.732Z,100880.31
2023-02-28T00:55:52.353Z,100883.75
2023-02-28T00:56:39.293Z,100882.50
2023-02-28T00:57:26.213Z,100887.66
2023-02-28T00:58:13.148Z,100880.25
2023-02-28T00:59:00.004Z,100881.66
2023-02-28T00:59:46.862Z,100883.66
2023-02-28T01:00:33.804Z,100881.66
2023-02-28T01:01:20.698Z,100888.00
2023-02-28T01:02:07.811Z,100885.75
2023-02-28T01:02:54.706Z,100883.38
2023-02-28T01:03:41.734Z,100886.41
2023-02-28T01:04:28.684Z,100878.41
2023-02-28T01:05:15.627Z,100884.41
2023-02-28T01:06:02.656Z,100884.31
2023-02-28T01:06:49.587Z,100887.91
2023-02-28T01:07:36.531Z,100883.38
2023-02-28T01:08:23.506Z,100886.03
2023-02-28T01:09:11.425Z,100893.06
2023-02-28T01:09:58.345Z,100891.25
2023-02-28T01:10:45.370Z,100889.56
2023-02-28T01:11:32.335Z,100895.06
2023-02-28T01:12:19.246Z,100894.66
2023-02-28T01:13:06.177Z,100895.06
2023-02-28T01:13:53.146Z,100895.44
2023-02-28T01:14:40.125Z,100894.37
2023-02-28T01:15:27.071Z,100898.28
2023-02-28T01:16:14.773Z,100907.00
2023-02-28T01:17:01.786Z,100902.44
2023-02-28T01:17:48.674Z,100899.38
2023-02-28T01:18:35.741Z,100891.41
2023-02-28T01:19:22.672Z,100895.88
2023-02-28T01:20:10.953Z,100900.69
2023-02-28T01:20:57.873Z,100905.34
2023-02-28T01:21:44.758Z,100896.22
2023-02-28T01:22:31.714Z,100893.84
2023-02-28T01:23:18.642Z,100896.84
2023-02-28T01:24:06.424Z,100898.00
2023-02-28T01:24:53.813Z,100890.78
2023-02-28T01:25:40.939Z,100898.31
2023-02-28T01:26:27.827Z,100898.53
2023-02-28T01:27:14.865Z,100900.72
2023-02-28T01:28:01.733Z,100905.47
2023-02-28T01:28:50.078Z,100899.53
2023-02-28T01:29:37.002Z,100904.03
2023-02-28T01:30:24.094Z,100903.72
2023-02-28T01:31:11.689Z,100898.94
2023-02-28T01:32:00.683Z,100904.19
2023-02-28T01:32:47.734Z,100897.63
2023-02-28T01:33:34.914Z,100903.06
2023-02-28T01:34:21.803Z,100899.06
2023-02-28T01:35:08.956Z,100903.78
2023-02-28T01:36:02.758Z,100898.47
2023-02-28T01:36:49.672Z,100905.28
2023-02-28T01:37:36.594Z,100906.91
2023-02-28T01:38:23.600Z,100907.56
2023-02-28T01:39:10.523Z,100899.88
2023-02-28T01:39:57.413Z,100907.94
2023-02-28T01:40:44.319Z,100902.94
2023-02-28T01:41:33.595Z,100906.00
2023-02-28T01:42:20.554Z,100908.75
2023-02-28T01:43:25.360Z,100901.87
2023-02-28T01:44:49.908Z,100903.41
2023-02-28T01:45:37.230Z,100908.41
2023-02-28T01:46:24.225Z,100907.25
2023-02-28T01:47:11.322Z,100900.63
2023-02-28T01:48:04.005Z,100906.34
2023-02-28T01:49:29.557Z,100909.94
2023-02-28T01:50:21.118Z,100900.81
2023-02-28T01:51:14.863Z,100899.66
2023-02-28T01:52:01.926Z,100905.97
2023-02-28T01:52:49.843Z,100900.63
2023-02-28T01:53:41.079Z,100901.47
2023-02-28T01:54:31.473Z,100900.28
2023-02-28T01:55:20.137Z,100898.81
2023-02-28T01:56:08.329Z,100899.66
2023-02-28T01:56:58.778Z,100903.38
2023-02-28T01:57:52.302Z,100900.47
2023-02-28T01:58:39.275Z,100904.50
2023-02-28T01:59:50.158Z,100905.09
2023-02-28T02:00:37.082Z,100905.91
2023-02-28T02:01:25.382Z,100904.38
2023-02-28T02:02:12.409Z,100898.94
2023-02-28T02:03:02.137Z,100909.03
2023-02-28T02:03:56.576Z,100905.41
2023-02-28T02:04:51.750Z,100907.13
2023-02-28T02:05:40.463Z,100910.16
2023-02-28T02:06:35.787Z,100905.78
2023-02-28T02:07:24.307Z,100911.97
2023-02-28T02:08:13.619Z,100902.28
2023-02-28T02:09:00.560Z,100910.47
2023-02-28T02:09:47.557Z,100909.72
2023-02-28T02:10:52.398Z,100908.94
2023-02-28T02:11:41.249Z,100904.78
2023-02-28T02:12:59.549Z,100911.31
2023-02-28T02:14:24.570Z,100913.69
2023-02-28T02:15:18.417Z,100912.19
2023-02-28T02:16:19.649Z,100921.81
2023-02-28T02:17:09.458Z,100924.25
2023-02-28T02:17:59.560Z,100927.88
2023-02-28T02:18:53.833Z,100920.00
2023-02-28T02:19:52.675Z,100916.09
2023-02-28T02:21:01.398Z,100915.13
2023-02-28T02:22:09.663Z,100915.13
2023-02-28T02:23:03.887Z,100920.28
2023-02-28T02:24:13.317Z,100930.72
2023-02-28T02:25:04.608Z,100925.69
2023-02-28T02:26:03.657Z,100937.94
2023-02-28T02:26:53.208Z,100930.84
2023-02-28T02:27:58.950Z,100933.03
2023-02-28T02:29:15.208Z,100930.25
2023-02-28T02:30:20.942Z,100927.50
2023-02-28T02:31:16.808Z,100930.34
2023-02-28T02:32:41.527Z,100930.03
2023-02-28T02:35:48.526Z,100932.06
2023-02-28T02:36:43.545Z,100927.03
2023-02-28T02:38:10.860Z,100931.22
2023-02-28T02:39:13.805Z,100933.13
2023-02-28T02:40:17.076Z,100926.28
2023-02-28T02:41:30.113Z,100927.12
2023-02-28T02:42:27.133Z,100930.06
2023-02-28T02:43:28.491Z,100932.53
2023-02-28T02:44:41.026Z,100928.81
2023-02-28T02:45:45.688Z,100921.97
2023-02-28T02:46:38.976Z,100928.91
2023-02-28T02:47:29.253Z,100937.25
2023-02-28T02:48:19.339Z,100929.41
2023-02-28T02:49:10.450Z,100925.00
2023-02-28T02:49:59.822Z,100933.66
2023-02-28T02:50:50.552Z,100919.69
2023-02-28T02:51:39.283Z,100931.09
2023-02-28T02:52:36.173Z,100934.50
2023-02-28T02:53:31.086Z,100931.94
2023-02-28T02:54:19.341Z,100935.94
2023-02-28T02:55:08.067Z,100929.56
2023-02-28T02:55:55.658Z,100922.06
2023-02-28T02:56:44.953Z,100938.00
2023-02-28T02:57:36.878Z,100929.50
2023-02-28T02:58:28.074Z,100924.16
2023-02-28T02:59:25.536Z,100914.50
2023-02-28T03:00:13.922Z,100921.97
2023-02-28T03:01:07.214Z,100925.59
2023-02-28T03:01:57.573Z,100922.56
2023-02-28T03:02:46.059Z,100924.16
2023-02-28T03:03:34.622Z,100925.59
2023-02-28T03:04:24.021Z,100930.03
2023-02-28T03:05:19.013Z,100929.50
2023-02-28T03:06:07.157Z,100931.00
2023-02-28T03:06:57.064Z,100926.94
2023-02-28T03:07:44.152Z,100929.13
2023-02-28T03:08:36.154Z,100935.47
2023-02-28T03:09:24.217Z,100927.28
2023-02-28T03:10:31.131Z,100929.56
2023-02-28T03:11:18.243Z,100930.53
2023-02-28T03:12:06.095Z,100927.66
2023-02-28T03:13:13.234Z,100927.59
2023-02-28T03:14:47.793Z,100927.66
2023-02-28T03:16:01.180Z,100931.41
2023-02-28T03:17:01.780Z,100924.00
2023-02-28T03:17:58.321Z,100928.94
2023-02-28T03:19:13.195Z,100935.31
2023-02-28T03:20:15.363Z,100928.84
2023-02-28T03:21:55.975Z,100929.97
2023-02-28T03:23:04.964Z,100932.28
2023-02-28T03:24:17.744Z,100931.59
2023-02-28T03:25:18.494Z,100928.25
2023-02-28T03:26:17.955Z,100931.38
2023-02-28T03:27:22.995Z,100934.50
2023-02-28T03:28:10.039Z,100927.28
2023-02-28T03:29:06.968Z,100926.66
2023-02-28T03:30:01.948Z,100922.41
2023-02-28T03:30:56.108Z,100935.69
2023-02-28T03:31:47.389Z,100931.78
2023-02-28T03:32:42.510Z,100930.91
2023-02-28T03:33:37.357Z,100930.72
2023-02-28T03:34:48.368Z,100927.97
2023-02-28T03:35:42.767Z,100923.50
2023-02-28T03:36:32.516Z,100926.75
2023-02-28T03:37:22.880Z,100916.84
2023-02-28T03:38:19.515Z,100928.19
2023-02-28T03:39:11.518Z,100924.47
2023-02-28T03:40:02.348Z,100923.72
2023-02-28T03:40:53.426Z,100927.88
2023-02-28T03:41:45.890Z,100928.63
2023-02-28T03:42:35.220Z,100933.00
2023-02-28T03:43:30.125Z,100931.31
2023-02-28T03:44:27.370Z,100920.81
2023-02-28T03:45:21.361Z,100917.78
2023-02-28T03:46:11.916Z,100924.72
2023-02-28T03:47:00.271Z,100921.03
2023-02-28T03:48:12.777Z,100921.87
2023-02-28T03:49:17.303Z,100924.44
2023-02-28T03:50:08.701Z,100934.81
2023-02-28T03:50:57.619Z,100926.91
2023-02-28T03:51:46.929Z,100933.66
2023-02-28T03:52:37.551Z,100931.94
2023-02-28T03:53:26.916Z,100933.13
2023-02-28T03:54:17.509Z,100932.34
2023-02-28T03:55:08.312Z,100932.81
2023-02-28T03:56:09.978Z,100940.88
2023-02-28T03:57:29.380Z,100932.72
2023-02-28T03:58:31.124Z,100938.53
2023-02-28T03:59:23.958Z,100940.50
2023-02-28T04:00:35.549Z,100942.22
2023-02-28T04:01:27.772Z,100942.03
2023-02-28T04:02:15.275Z,100939.84
2023-02-28T04:03:02.308Z,100939.75
2023-02-28T04:03:49.461Z,100937.84
2023-02-28T04:04:36.780Z,100944.00
2023-02-28T04:05:24.448Z,100942.41
2023-02-28T04:06:17.326Z,100940.59
2023-02-28T04:07:09.616Z,100938.13
2023-02-28T04:08:05.710Z,100946.22
2023-02-28T04:08:53.038Z,100943.38
2023-02-28T04:09:40.224Z,100939.38
2023-02-28T04:10:27.330Z,100939.91
2023-02-28T04:11:31.959Z,100942.31
2023-02-28T04:12:19.059Z,100943.16
2023-02-28T04:13:06.103Z,100940.78
2023-02-28T04:13:53.136Z,100943.84
2023-02-28T04:14:40.275Z,100944.38
2023-02-28T04:15:28.560Z,100945.34
2023-02-28T04:16:32.115Z,100940.50
2023-02-28T04:17:21.400Z,100944.22
2023-02-28T04:18:09.058Z,100944.88
2023-02-28T04:19:03.246Z,100942.16
2023-02-28T04:19:51.118Z,100945.16
2023-02-28T04:20:38.276Z,100943.00
2023-02-28T04:21:27.785Z,100945.91
2023-02-28T04:22:15.027Z,100944.38
2023-02-28T04:23:02.127Z,100936.72
2023-02-28T04:23:49.147Z,100944.59
2023-02-28T04:24:36.718Z,100941.72
2023-02-28T04:25:23.748Z,100947.81
2023-02-28T04:26:10.837Z,100942.50
2023-02-28T04:26:59.039Z,100944.12
2023-02-28T04:27:46.130Z,100945.28
2023-02-28T04:28:34.165Z,100938.44
2023-02-28T04:29:29.720Z,100944.38
2023-02-28T04:30:17.140Z,100944.41
2023-02-28T04:31:05.855Z,100945.19
2023-02-28T04:31:54.743Z,100946.50
2023-02-28T04:32:41.896Z,100944.97
2023-02-28T04:33:29.519Z,100948.19
2023-02-28T04:34:17.107Z,100940.03
2023-02-28T04:35:04.697Z,100953.62
2023-02-28T04:36:05.069Z,100944.22
2023-02-28T04:37:10.355Z,100944.81
2023-02-28T04:37:59.201Z,100945.25
2023-02-28T04:38:46.756Z,100950.97
2023-02-28T04:39:37.048Z,100943.38
2023-02-28T04:40:24.078Z,100949.16
2023-02-28T04:41:11.448Z,100945.75
2023-02-28T04:41:58.628Z,100954.94
2023-02-28T04:42:45.767Z,100946.97
2023-02-28T04:43:33.326Z,100944.50
2023-02-28T04:44:21.616Z,100948.78
2023-02-28T04:45:11.646Z,100954.69
2023-02-28T04:46:00.745Z,100947.34
2023-02-28T04:46:49.338Z,100949.16
2023-02-28T04:47:36.318Z,100952.50
2023-02-28T04:48:25.165Z,100948.00
2023-02-28T04:49:13.097Z,100946.22
2023-02-28T04:50:00.247Z,100948.87
2023-02-28T04:50:47.299Z,100944.22
2023-02-28T04:51:34.295Z,100947.25
2023-02-28T04:52:21.405Z,100947.84
2023-02-28T04:53:08.744Z,100950.00
2023-02-28T04:53:56.415Z,100953.72
2023-02-28T04:54:43.652Z,100953.81
2023-02-28T04:55:30.775Z,100949.53
2023-02-28T04:56:19.625Z,100953.81
2023-02-28T04:57:07.305Z,100950.47
2023-02-28T04:57:54.270Z,100948.87
2023-02-28T04:58:41.394Z,100949.72
2023-02-28T04:59:28.653Z,100948.00
2023-02-28T05:00:18.008Z,100954.84
2023-02-28T05:01:13.883Z,100947.81
2023-02-28T05:02:01.087Z,100943.66
2023-02-28T05:02:48.316Z,100947.34
2023-02-28T05:03:35.302Z,100949.63
2023-02-28T05:04:22.402Z,100942.69
2023-02-28T05:05:09.888Z,100951.81
2023-02-28T05:05:57.211Z,100941.84
2023-02-28T05:06:44.308Z,100947.91
2023-02-28T05:07:31.410Z,100952.56
2023-02-28T05:08:18.491Z,100947.72
2023-02-28T05:09:05.556Z,100950.75
2023-02-28T05:09:52.702Z,100953.41
2023-02-28T05:10:39.861Z,100951.25
2023-02-28T05:11:36.415Z,100952.09
2023-02-28T05:12:23.552Z,100953.16
2023-02-28T05:13:13.742Z,100945.94
2023-02-28T05:14:01.106Z,100945.19
2023-02-28T05:14:48.146Z,100948.13
2023-02-28T05:15:35.785Z,100951.13
2023-02-28T05:16:23.101Z,100956.09
2023-02-28T05:17:10.387Z,100950.28
2023-02-28T05:17:57.455Z,100951.81
2023-02-28T05:18:44.917Z,100949.16
2023-02-28T05:19:32.187Z,100951.06
2023-02-28T05:20:19.355Z,100947.47
2023-02-28T05:21:06.986Z,100959.03
2023-02-28T05:21:56.035Z,100960.75
2023-02-28T05:22:43.323Z,100958.19
2023-02-28T05:23:30.642Z,100963.13
2023-02-28T05:24:23.950Z,100958.16
2023-02-28T05:25:18.091Z,100961.12
2023-02-28T05:26:05.282Z,100962.56
2023-02-28T05:26:54.731Z,100952.66
2023-02-28T05:27:41.789Z,100961.88
2023-02-28T05:28:28.946Z,100967.56
2023-02-28T05:29:16.122Z,100964.22
2023-02-28T05:30:04.891Z,100972.31
2023-02-28T05:30:52.071Z,100970.59
2023-02-28T05:31:39.271Z,100976.81
2023-02-28T05:32:26.533Z,100979.50
2023-02-28T05:33:14.390Z,100974.94
2023-02-28T05:34:01.643Z,100978.16
2023-02-28T05:34:48.835Z,100975.34
2023-02-28T05:35:42.316Z,100981.78
2023-02-28T05:36:29.502Z,100980.66
2023-02-28T05:37:16.993Z,100979.41
2023-02-28T05:38:04.045Z,100985.78
2023-02-28T05:38:51.877Z,100986.34
2023-02-28T05:39:39.921Z,100985.38
2023-02-28T05:40:27.081Z,100985.13
2023-02-28T05:41:14.341Z,100985.28
2023-02-28T05:42:01.432Z,100979.81
2023-02-28T05:42:48.662Z,100975.06
2023-02-28T05:43:36.065Z,100982.19
2023-02-28T05:44:23.282Z,100987.94
2023-02-28T05:45:11.297Z,100986.37
2023-02-28T05:45:58.449Z,100982.69
2023-02-28T05:46:45.538Z,100990.13
2023-02-28T05:47:32.682Z,100985.56
2023-02-28T05:48:19.887Z,100990.88
2023-02-28T05:49:07.253Z,100988.22
2023-02-28T05:49:54.543Z,100992.78
2023-02-28T05:50:42.171Z,100994.09
2023-02-28T05:51:29.839Z,100994.62
2023-02-28T05:52:17.111Z,100986.16
2023-02-28T05:53:07.293Z,100989.66
2023-02-28T05:53:54.740Z,100985.13
2023-02-28T05:54:43.045Z,100990.34
2023-02-28T05:55:30.147Z,100992.91
2023-02-28T05:56:17.305Z,100991.88
2023-02-28T05:57:10.037Z,100988.66
2023-02-28T05:58:00.031Z,100988.03
2023-02-28T05:58:47.155Z,100991.75
2023-02-28T05:59:34.397Z,100989.94
2023-02-28T06:00:21.764Z,100993.97
2023-02-28T06:01:24.531Z,100993.13
2023-02-28T06:02:16.872Z,101000.34
2023-02-28T06:03:04.100Z,100999.25
2023-02-28T06:03:51.910Z,101004.03
2023-02-28T06:04:39.021Z,100996.28
2023-02-28T06:05:26.064Z,100998.59
2023-02-28T06:06:13.019Z,100998.12
2023-02-28T06:07:00.304Z,100998.31
2023-02-28T06:07:47.386Z,100994.38
2023-02-28T06:08:34.495Z,100998.75
2023-02-28T06:09:21.715Z,100991.56
2023-02-28T06:10:09.484Z,100996.50
2023-02-28T06:10:56.466Z,100991.91
2023-02-28T06:11:43.846Z,100996.50
2023-02-28T06:12:30.999Z,100996.69
2023-02-28T06:13:18.126Z,100988.81
2023-02-28T06:14:05.849Z,100994.91
2023-02-28T06:14:53.525Z,100993.28
2023-02-28T06:15:40.750Z,100992.16
2023-02-28T06:16:29.199Z,101000.22
2023-02-28T06:17:16.300Z,100996.16
2023-02-28T06:18:03.873Z,100994.72
2023-02-28T06:18:51.206Z,100998.31
2023-02-28T06:19:40.089Z,100995.06
2023-02-28T06:20:31.367Z,100988.38
2023-02-28T06:21:18.417Z,100991.53
2023-02-28T06:22:05.747Z,100997.03
2023-02-28T06:22:53.048Z,100996.78
2023-02-28T06:23:40.455Z,101002.16
2023-02-28T06:24:31.627Z,101001.16
2023-02-28T06:25:19.047Z,101006.69
2023-02-28T06:26:06.696Z,100999.69
2023-02-28T06:26:53.768Z,101006.63
2023-02-28T06:27:40.911Z,101001.97
2023-02-28T06:28:28.076Z,101009.59
2023-02-28T06:29:19.666Z,100999.84
2023-02-28T06:30:08.189Z,101014.72
2023-02-28T06:30:55.312Z,101010.97
2023-02-28T06:31:42.583Z,101005.75
2023-02-28T06:32:29.720Z,101014.59
2023-02-28T06:33:16.739Z,101007.38
2023-02-28T06:34:04.057Z,101008.00
2023-02-28T06:34:51.852Z,101004.56
2023-02-28T06:35:39.590Z,101006.69
2023-02-28T06:36:26.648Z,101009.94
2023-02-28T06:37:13.758Z,101005.50
2023-02-28T06:38:00.819Z,101009.25
2023-02-28T06:38:52.600Z,101008.25
2023-02-28T06:39:39.669Z,101008.50
2023-02-28T06:40:26.765Z,101018.41
2023-02-28T06:41:13.872Z,101017.31
2023-02-28T06:42:00.991Z,101017.47
2023-02-28T06:42:48.128Z,101015.31
2023-02-28T06:43:38.969Z,101020.94
2023-02-28T06:44:26.148Z,101017.88
2023-02-28T06:45:13.704Z,101012.19
2023-02-28T06:46:02.573Z,101012.34
2023-02-28T06:46:49.731Z,101019.19
2023-02-28T06:47:37.848Z,101015.50
2023-02-28T06:48:25.257Z,101016.28
2023-02-28T06:49:13.295Z,101015.50
2023-02-28T06:50:02.712Z,101015.59
2023-02-28T06:50:49.950Z,101018.00
2023-02-28T06:51:38.980Z,101011.25
2023-02-28T06:52:26.130Z,101017.66
2023-02-28T06:53:13.158Z,101018.78
2023-02-28T06:54:00.270Z,101008.94
2023-02-28T06:54:47.489Z,101011.44
2023-02-28T06:55:34.682Z,101014.84
2023-02-28T06:56:22.151Z,101020.00
2023-02-28T06:57:09.289Z,101018.72
2023-02-28T06:57:56.340Z,101023.94
2023-02-28T06:58:43.470Z,101017.41
2023-02-28T06:59:30.610Z,101016.00
2023-02-28T07:00:17.861Z,101018.84
2023-02-28T07:01:05.719Z,101016.56
2023-02-28T07:01:53.362Z,101018.00
2023-02-28T07:02:40.504Z,101019.34
2023-02-28T07:03:27.663Z,101020.19
2023-02-28T07:04:14.869Z,101018.66
2023-02-28T07:05:01.959Z,101019.53
2023-02-28T07:05:49.185Z,101016.87
2023-02-28T07:06:36.471Z,101017.44
2023-02-28T07:07:23.568Z,101014.56
2023-02-28T07:08:10.684Z,101013.22
2023-02-28T07:08:57.818Z,101026.75
2023-02-28T07:09:44.945Z,101022.41
2023-02-28T07:10:32.147Z,101023.19
2023-02-28T07:11:19.985Z,101018.78
2023-02-28T07:12:07.732Z,101017.81
2023-02-28T07:12:54.813Z,101023.34
2023-02-28T07:13:41.898Z,101021.00
2023-02-28T07:14:28.954Z,101013.44
2023-02-28T07:15:16.014Z,101019.22
2023-02-28T07:16:07.044Z,101023.56
2023-02-28T07:16:54.188Z,101025.03
2023-02-28T07:17:41.392Z,101018.38
2023-02-28T07:18:29.020Z,101020.66
2023-02-28T07:19:16.071Z,101021.41
2023-02-28T07:20:05.720Z,101031.00
2023-02-28T07:20:53.236Z,101020.97
2023-02-28T07:21:40.378Z,101023.25
2023-02-28T07:22:27.373Z,101026.38
2023-02-28T07:23:14.551Z,101028.38
2023-02-28T07:24:01.670Z,101022.56
2023-02-28T07:24:48.685Z,101030.37
2023-02-28T07:25:35.772Z,101032.16
2023-02-28T07:26:22.999Z,101029.34
2023-02-28T07:27:10.233Z,101026.66
2023-02-28T07:27:58.214Z,101026.09
2023-02-28T07:28:46.735Z,101030.81
2023-02-28T07:29:33.742Z,101036.91
2023-02-28T07:30:20.949Z,101025.22
2023-02-28T07:31:08.565Z,101039.09
2023-02-28T07:31:55.962Z,101032.63
2023-02-28T07:32:45.110Z,101035.09
2023-02-28T07:33:32.334Z,101037.75
2023-02-28T07:34:19.372Z,101036.69
2023-02-28T07:35:06.831Z,101041.34
2023-02-28T07:35:53.965Z,101039.63
2023-02-28T07:36:41.454Z,101034.53
2023-02-28T07:37:28.625Z,101035.97
2023-02-28T07:38:15.787Z,101025.84
2023-02-28T07:39:03.124Z,101030.69
2023-02-28T07:39:50.235Z,101032.66
2023-02-28T07:40:38.028Z,101035.66
2023-02-28T07:41:29.232Z,101034.28
2023-02-28T07:42:16.393Z,101032.59
2023-02-28T07:43:04.543Z,101040.59
2023-02-28T07:43:51.566Z,101039.22
2023-02-28T07:44:41.732Z,101035.31
2023-02-28T07:45:35.629Z,101037.09
2023-02-28T07:46:23.103Z,101034.03
2023-02-28T07:47:10.657Z,101033.50
2023-02-28T07:47:57.848Z,101036.19
2023-02-28T07:48:45.818Z,101028.94
2023-02-28T07:49:33.385Z,101032.78
2023-02-28T07:50:20.471Z,101035.97
2023-02-28T07:51:07.810Z,101039.12
2023-02-28T07:51:54.918Z,101036.00
2023-02-28T07:52:42.644Z,101032.28
2023-02-28T07:53:30.475Z,101031.13
2023-02-28T07:54:17.452Z,101030.66
2023-02-28T07:55:05.881Z,101032.91
2023-02-28T07:55:56.849Z,101035.69
2023-02-28T07:56:43.966Z,101038.03
2023-02-28T07:57:32.763Z,101032.28
2023-02-28T07:58:19.692Z,101040.50
2023-02-28T07:59:06.799Z,101035.47
2023-02-28T07:59:53.951Z,101035.25
2023-02-28T08:00:41.008Z,101039.41
2023-02-28T08:01:28.555Z,101032.81
2023-02-28T08:02:17.342Z,101035.91
2023-02-28T08:03:04.971Z,101038.06
2023-02-28T08:03:52.032Z,101039.31
2023-02-28T08:04:39.074Z,101036.31
2023-02-28T08:05:26.170Z,101035.47
2023-02-28T08:06:26.144Z,101034.31
2023-02-28T08:07:19.065Z,101034.41
2023-02-28T08:08:06.332Z,101040.81
2023-02-28T08:08:54.956Z,101042.53
2023-02-28T08:09:42.394Z,101037.81
2023-02-28T08:10:29.582Z,101040.81
2023-02-28T08:11:19.669Z,101041.66
2023-02-28T08:12:07.762Z,101044.13
2023-02-28T08:12:54.813Z,101045.06
2023-02-28T08:13:43.579Z,101047.22
2023-02-28T08:14:30.621Z,101035.91
2023-02-28T08:15:17.680Z,101040.56
2023-02-28T08:16:04.955Z,101039.81
2023-02-28T08:16:52.177Z,101042.97
2023-02-28T08:17:39.386Z,101036.47
2023-02-28T08:18:26.529Z,101037.37
2023-02-28T08:19:13.643Z,101037.63
2023-02-28T08:20:00.909Z,101040.50
2023-02-28T08:20:48.268Z,101038.66
2023-02-28T08:21:35.351Z,101041.16
2023-02-28T08:22:22.590Z,101035.81
2023-02-28T08:23:09.580Z,101040.72
2023-02-28T08:23:58.101Z,101042.09
2023-02-28T08:24:45.302Z,101045.06
2023-02-28T08:25:32.478Z,101050.41
2023-02-28T08:26:20.197Z,101045.09
2023-02-28T08:27:07.256Z,101045.09
2023-02-28T08:27:56.721Z,101050.09
2023-02-28T08:28:43.857Z,101046.91
2023-02-28T08:29:31.496Z,101046.47
2023-02-28T08:30:18.708Z,101048.50
2023-02-28T08:31:12.323Z,101045.50
2023-02-28T08:32:00.267Z,101047.31
2023-02-28T08:32:47.482Z,101053.31
2023-02-28T08:33:34.842Z,101053.94
2023-02-28T08:34:22.322Z,101048.72
2023-02-28T08:35:10.687Z,101045.81
2023-02-28T08:35:57.903Z,101054.69
2023-02-28T08:36:47.077Z,101048.31
2023-02-28T08:37:34.120Z,101057.06
2023-02-28T08:38:21.212Z,101050.75
2023-02-28T08:39:08.544Z,101056.31
2023-02-28T08:39:56.544Z,101056.91
2023-02-28T08:40:44.020Z,101051.91
2023-02-28T08:41:31.340Z,101052.62
2023-02-28T08:42:18.561Z,101054.03
2023-02-28T08:43:05.669Z,101055.97
2023-02-28T08:43:53.123Z,101055.97
2023-02-28T08:44:40.085Z,101052.34
2023-02-28T08:45:27.472Z,101050.84
2023-02-28T08:46:15.421Z,101049.97
2023-02-28T08:47:02.623Z,101054.56
2023-02-28T08:47:49.666Z,101054.13
2023-02-28T08:48:39.080Z,101055.13
2023-02-28T08:49:28.298Z,101050.19
2023-02-28T08:50:16.158Z,101048.81
2023-02-28T08:51:08.136Z,101053.81
2023-02-28T08:51:56.685Z,101046.56
2023-02-28T08:52:45.165Z,101046.69
2023-02-28T08:53:32.563Z,101048.41
2023-02-28T08:54:22.793Z,101044.34
2023-02-28T08:55:10.714Z,101050.75
2023-02-28T08:56:06.780Z,101045.22
2023-02-28T08:56:54.027Z,101050.97
2023-02-28T08:57:41.126Z,101049.25
2023-02-28T08:58:28.323Z,101043.25
2023-02-28T08:59:15.934Z,101047.88
2023-02-28T09:00:05.648Z,101044.97
2023-02-28T09:00:53.703Z,101050.84
2023-02-28T09:01:42.557Z,101049.91
2023-02-28T09:02:29.613Z,101041.34
2023-02-28T09:03:16.734Z,101049.34
2023-02-28T09:04:03.907Z,101043.91
2023-02-28T09:04:51.090Z,101041.47
2023-02-28T09:05:38.081Z,101044.13
2023-02-28T09:06:26.865Z,101047.84
2023-02-28T09:07:13.782Z,101047.63
2023-02-28T09:08:00.829Z,101054.13
2023-02-28T09:08:47.930Z,101048.91
2023-02-28T09:09:35.072Z,101048.06
2023-02-28T09:10:24.182Z,101044.31
2023-02-28T09:11:12.002Z,101043.13
2023-02-28T09:11:59.268Z,101051.03
2023-02-28T09:12:48.241Z,101043.34
2023-02-28T09:13:35.784Z,101053.38
2023-02-28T09:14:22.934Z,101052.53
2023-02-28T09:15:10.482Z,101052.50
2023-02-28T09:16:05.750Z,101042.78
2023-02-28T09:16:52.851Z,101048.56
2023-02-28T09:17:40.032Z,101052.75
2023-02-28T09:18:27.853Z,101046.87
2023-02-28T09:19:15.322Z,101057.03
2023-02-28T09:20:02.308Z,101050.81
2023-02-28T09:20:49.315Z,101045.19
2023-02-28T09:21:36.362Z,101047.28
2023-02-28T09:22:23.354Z,101046.84
2023-02-28T09:23:12.137Z,101047.34
2023-02-28T09:23:59.472Z,101046.41
2023-02-28T09:24:46.527Z,101050.56
2023-02-28T09:25:33.764Z,101054.81
2023-02-28T09:26:26.133Z,101048.62
2023-02-28T09:27:13.219Z,101041.66
2023-02-28T09:28:00.348Z,101049.31
2023-02-28T09:28:47.674Z,101051.28
2023-02-28T09:29:35.673Z,101050.94
2023-02-28T09:30:22.922Z,101050.72
2023-02-28T09:31:22.076Z,101051.06